Summit Grove, Indiana
Current Conditions -  °F | °C
As of 6:35 PM on Thursday 18 Dec 2014 (Local Time) from KPRG Reporting Station
Overcast Overcast  
Wind Chill: 29°   Ceiling: 1900
Heat Index: 29°   Visibility: 7mi
Dew Point: 25°   Wind: 3mph
Humidity: 85%   Direction: 340°NNW
Pressure: 30.26"   Gusts: NA
Location:  39.6513°N, 87.4607°W
Report Text: KPRG 182335Z AUTO 34003KT 7SM OVC019 M01/M04 A3026 RMK AO2 T10151038
Loading
Personal Weather Stations






























Interactive Weather Map New forecast layout! Learn more

10-Day Weather Forecast

Advertisements
Track Severe Weather on mobile